createdAt,value
2019-03-16T00:00:08.028Z,9.20
2019-03-16T00:02:40.994Z,9.20
2019-03-16T00:05:12.451Z,9.30
2019-03-16T00:07:43.689Z,9.30
2019-03-16T00:10:15.446Z,9.20
2019-03-16T00:12:46.899Z,9.20
2019-03-16T00:15:18.158Z,9.20
2019-03-16T00:17:49.559Z,9.20
2019-03-16T00:20:20.823Z,9.20
2019-03-16T00:22:52.084Z,9.20
2019-03-16T00:25:23.312Z,9.20
2019-03-16T00:27:54.697Z,9.20
2019-03-16T00:30:26.424Z,9.30
2019-03-16T00:32:57.939Z,9.20
2019-03-16T00:35:29.467Z,9.20
2019-03-16T00:38:00.891Z,9.20
2019-03-16T00:40:32.875Z,9.30
2019-03-16T00:43:04.195Z,9.30
2019-03-16T00:45:35.508Z,9.30
2019-03-16T00:48:06.895Z,9.30
2019-03-16T00:50:38.354Z,9.30
2019-03-16T00:53:09.621Z,9.30
2019-03-16T00:55:40.977Z,9.20
2019-03-16T00:58:12.167Z,9.30
2019-03-16T01:00:43.899Z,9.20
2019-03-16T01:03:15.173Z,9.20
2019-03-16T01:05:46.610Z,9.30
2019-03-16T01:08:17.775Z,9.20
2019-03-16T01:10:49.393Z,9.20
2019-03-16T01:13:20.730Z,9.20
2019-03-16T01:15:51.986Z,9.20
2019-03-16T01:18:24.851Z,9.20
2019-03-16T01:20:56.749Z,9.10
2019-03-16T01:23:28.331Z,9.20
2019-03-16T01:25:59.593Z,9.20
2019-03-16T01:28:31.523Z,9.20
2019-03-16T01:31:03.099Z,9.20
2019-03-16T01:33:34.427Z,9.20
2019-03-16T01:36:05.764Z,9.20
2019-03-16T01:38:37.034Z,9.20
2019-03-16T01:41:08.456Z,9.20
2019-03-16T01:43:39.972Z,9.20
2019-03-16T01:46:11.277Z,9.20
2019-03-16T01:48:43.009Z,9.20
2019-03-16T01:51:15.064Z,9.20
2019-03-16T01:53:46.762Z,9.20
2019-03-16T01:56:18.044Z,9.20
2019-03-16T01:58:49.228Z,9.10
2019-03-16T02:01:20.564Z,9.10
2019-03-16T02:03:52.020Z,9.10
2019-03-16T02:06:23.190Z,9.10
2019-03-16T02:08:54.558Z,9.10
2019-03-16T02:11:26.091Z,9.10
2019-03-16T02:13:57.325Z,9.10
2019-03-16T02:16:29.209Z,9.10
2019-03-16T02:19:00.531Z,9.10
2019-03-16T02:21:32.253Z,9.10
2019-03-16T02:24:03.432Z,9.10
2019-03-16T02:26:34.937Z,9.10
2019-03-16T02:29:06.338Z,9.10
2019-03-16T02:31:37.756Z,9.10
2019-03-16T02:34:09.066Z,9.10
2019-03-16T02:36:51.665Z,9.00
2019-03-16T02:39:23.443Z,9.00
2019-03-16T02:41:54.678Z,9.00
2019-03-16T02:44:25.977Z,9.00
2019-03-16T02:46:57.494Z,9.00
2019-03-16T02:49:28.668Z,9.00
2019-03-16T02:52:00.199Z,9.00
2019-03-16T02:54:31.879Z,9.00
2019-03-16T02:57:04.070Z,9.00
2019-03-16T02:59:35.458Z,9.00
2019-03-16T03:02:07.321Z,9.00
2019-03-16T03:04:45.661Z,9.00
2019-03-16T03:07:14.942Z,9.00
2019-03-16T03:09:46.096Z,9.00
2019-03-16T03:12:17.262Z,9.00
2019-03-16T03:14:48.587Z,9.00
2019-03-16T03:17:19.757Z,9.00
2019-03-16T03:19:51.064Z,9.00
2019-03-16T03:22:22.228Z,9.00
2019-03-16T03:24:53.495Z,9.10
2019-03-16T03:27:24.748Z,9.00
2019-03-16T03:29:57.373Z,9.10
2019-03-16T03:32:29.018Z,9.00
2019-03-16T03:35:00.687Z,9.10
2019-03-16T03:37:32.278Z,9.00
2019-03-16T03:40:03.916Z,9.00
2019-03-16T03:42:35.301Z,9.00
2019-03-16T03:45:07.480Z,9.00
2019-03-16T03:47:38.779Z,9.00
2019-03-16T03:50:10.281Z,9.00
2019-03-16T03:52:41.660Z,9.00
2019-03-16T03:55:13.065Z,9.00
2019-03-16T03:57:45.404Z,8.90
2019-03-16T04:00:16.947Z,9.00
2019-03-16T04:02:48.323Z,9.00
2019-03-16T04:05:19.818Z,9.00
2019-03-16T04:07:51.121Z,9.00
2019-03-16T04:10:22.415Z,9.00
2019-03-16T04:12:53.642Z,9.00
2019-03-16T04:15:24.805Z,9.00
2019-03-16T04:17:56.097Z,9.00
2019-03-16T04:20:27.297Z,9.00
2019-03-16T04:22:58.768Z,9.00
2019-03-16T04:25:32.167Z,8.90
2019-03-16T04:28:03.497Z,8.90
2019-03-16T04:30:34.947Z,8.90
2019-03-16T04:33:06.257Z,8.90
2019-03-16T04:35:37.799Z,8.90
2019-03-16T04:38:09.030Z,8.80
2019-03-16T04:40:40.460Z,8.90
2019-03-16T04:43:12.116Z,8.90
2019-03-16T04:45:43.347Z,8.90
2019-03-16T04:48:14.915Z,8.90
2019-03-16T04:50:46.165Z,8.90
2019-03-16T04:53:17.462Z,8.90
2019-03-16T04:55:48.685Z,8.90
2019-03-16T04:58:19.856Z,8.80
2019-03-16T05:00:51.169Z,8.90
2019-03-16T05:03:23.400Z,8.80
2019-03-16T05:05:54.855Z,8.80
2019-03-16T05:08:26.008Z,8.80
2019-03-16T05:10:57.333Z,8.80
2019-03-16T05:13:28.790Z,8.80
2019-03-16T05:15:59.996Z,8.80
2019-03-16T05:18:31.413Z,8.80
2019-03-16T05:21:02.576Z,8.70
2019-03-16T05:23:33.733Z,8.80
2019-03-16T05:26:04.993Z,8.80
2019-03-16T05:28:36.202Z,8.80
2019-03-16T05:31:08.019Z,8.80
2019-03-16T05:33:39.645Z,8.70
2019-03-16T05:36:10.804Z,8.70
2019-03-16T05:38:42.217Z,8.70
2019-03-16T05:41:15.049Z,8.70
2019-03-16T05:43:46.591Z,8.70
2019-03-16T05:46:18.128Z,8.70
2019-03-16T05:48:49.531Z,8.70
2019-03-16T05:51:20.712Z,8.70
2019-03-16T05:53:52.133Z,8.70
2019-03-16T05:56:23.494Z,8.70
2019-03-16T05:58:54.678Z,8.70
2019-03-16T06:01:26.033Z,8.70
2019-03-16T06:03:57.687Z,8.70
2019-03-16T06:06:30.414Z,8.70
2019-03-16T06:09:01.643Z,8.60
2019-03-16T06:11:33.380Z,8.70
2019-03-16T06:14:04.682Z,8.60
2019-03-16T06:16:35.996Z,8.70
2019-03-16T06:19:07.471Z,8.60
2019-03-16T06:21:38.817Z,8.60
2019-03-16T06:24:10.388Z,8.70
2019-03-16T06:26:41.888Z,8.70
2019-03-16T06:29:13.047Z,8.60
2019-03-16T06:31:44.418Z,8.70
2019-03-16T06:34:15.569Z,8.70
2019-03-16T06:36:46.865Z,8.60
2019-03-16T06:39:18.061Z,8.70
2019-03-16T06:41:49.261Z,8.70
2019-03-16T06:44:21.212Z,8.70
2019-03-16T06:46:52.558Z,8.70
2019-03-16T06:49:23.791Z,8.70
2019-03-16T06:51:55.066Z,8.70
2019-03-16T06:54:26.242Z,8.70
2019-03-16T06:56:57.773Z,8.70
2019-03-16T06:59:28.918Z,8.70
2019-03-16T07:02:00.096Z,8.70
2019-03-16T07:04:31.327Z,8.70
2019-03-16T07:07:02.565Z,8.70
2019-03-16T07:09:34.158Z,8.70
2019-03-16T07:12:06.613Z,8.70
2019-03-16T07:14:39.106Z,8.70
2019-03-16T07:17:10.286Z,8.70
2019-03-16T07:19:41.635Z,8.70
2019-03-16T07:22:13.407Z,8.70
2019-03-16T07:24:44.997Z,8.70
2019-03-16T07:27:25.634Z,8.70
2019-03-16T07:29:49.513Z,8.70
2019-03-16T07:32:20.798Z,8.70
2019-03-16T07:34:52.103Z,8.70
2019-03-16T07:37:23.321Z,8.70
2019-03-16T07:39:54.889Z,8.70
2019-03-16T07:42:26.323Z,8.70
2019-03-16T07:45:07.550Z,8.80
2019-03-16T07:47:30.555Z,8.80
2019-03-16T07:50:02.000Z,8.80
2019-03-16T07:52:33.199Z,8.80
2019-03-16T07:55:04.559Z,8.80
2019-03-16T07:57:40.571Z,8.80
2019-03-16T08:00:09.196Z,8.90
2019-03-16T08:02:40.451Z,8.90
2019-03-16T08:05:18.534Z,8.90
2019-03-16T08:07:46.080Z,8.90
2019-03-16T08:10:17.442Z,8.90
2019-03-16T08:12:48.767Z,8.90
2019-03-16T08:15:21.191Z,8.90
2019-03-16T08:17:52.836Z,8.90
2019-03-16T08:20:24.472Z,8.90
2019-03-16T08:22:55.729Z,8.90
2019-03-16T08:25:27.014Z,8.90
2019-03-16T08:27:58.257Z,8.90
2019-03-16T08:30:29.576Z,9.00
2019-03-16T08:33:00.837Z,9.00
2019-03-16T08:35:32.363Z,9.00
2019-03-16T08:38:03.970Z,9.00
2019-03-16T08:40:35.506Z,9.00
2019-03-16T08:43:06.987Z,9.00
2019-03-16T08:45:38.295Z,9.00
2019-03-16T08:48:21.910Z,9.00
2019-03-16T08:50:42.690Z,9.10
2019-03-16T08:53:14.005Z,9.00
2019-03-16T08:55:45.215Z,9.00
2019-03-16T08:58:16.450Z,8.70
2019-03-16T09:00:47.607Z,9.10
2019-03-16T09:03:18.961Z,9.10
2019-03-16T09:05:50.359Z,9.10
2019-03-16T09:08:21.707Z,9.20
2019-03-16T09:10:53.010Z,9.10
2019-03-16T09:13:24.778Z,9.10
2019-03-16T09:15:57.123Z,9.10
2019-03-16T09:18:28.746Z,9.10
2019-03-16T09:20:59.920Z,9.20
2019-03-16T09:23:31.348Z,9.10
2019-03-16T09:26:02.712Z,9.10
2019-03-16T09:28:33.947Z,9.10
2019-03-16T09:31:05.281Z,9.10
2019-03-16T09:33:37.304Z,9.10
2019-03-16T09:36:08.640Z,9.10
2019-03-16T09:38:40.172Z,9.10
2019-03-16T09:41:11.363Z,9.20
2019-03-16T09:43:42.520Z,9.20
2019-03-16T09:46:13.993Z,9.20
2019-03-16T09:48:45.335Z,9.20
2019-03-16T09:51:18.229Z,9.20
2019-03-16T09:53:49.518Z,9.20
2019-03-16T09:56:20.778Z,9.20
2019-03-16T09:58:52.043Z,9.20
2019-03-16T10:01:23.296Z,9.20
2019-03-16T10:03:54.619Z,9.20
2019-03-16T10:06:25.845Z,9.20
2019-03-16T10:08:57.035Z,9.20
2019-03-16T10:11:28.221Z,9.30
2019-03-16T10:13:59.414Z,9.30
2019-03-16T10:16:30.730Z,9.30
2019-03-16T10:19:02.342Z,9.40
2019-03-16T10:21:33.591Z,9.40
2019-03-16T10:24:05.006Z,9.50
2019-03-16T10:26:37.691Z,9.50
2019-03-16T10:29:09.292Z,9.60
2019-03-16T10:31:40.503Z,9.70
2019-03-16T10:34:12.003Z,9.90
2019-03-16T10:36:44.574Z,10.00
2019-03-16T10:39:15.751Z,10.10
2019-03-16T10:41:46.993Z,10.20
2019-03-16T10:44:18.275Z,10.20
2019-03-16T10:46:49.524Z,10.30
2019-03-16T10:49:20.711Z,10.20
2019-03-16T10:51:51.957Z,10.20
2019-03-16T10:54:23.410Z,10.10
2019-03-16T10:56:54.587Z,10.10
2019-03-16T10:59:26.214Z,10.10
2019-03-16T11:01:58.154Z,10.10
2019-03-16T11:04:29.430Z,10.10
2019-03-16T11:07:00.639Z,10.10
2019-03-16T11:09:31.901Z,10.00
2019-03-16T11:12:03.146Z,10.10
2019-03-16T11:14:34.414Z,10.10
2019-03-16T11:17:05.856Z,10.10
2019-03-16T11:19:37.532Z,10.00
2019-03-16T11:22:09.231Z,10.10
2019-03-16T11:24:40.421Z,10.10
2019-03-16T11:27:12.003Z,10.10
2019-03-16T11:29:43.197Z,10.30
2019-03-16T11:32:15.031Z,10.30
2019-03-16T11:34:46.900Z,10.30
2019-03-16T11:37:18.095Z,10.30
2019-03-16T11:39:49.590Z,10.40
2019-03-16T11:42:20.949Z,10.40
2019-03-16T11:44:52.277Z,10.40
2019-03-16T11:47:24.622Z,10.40
2019-03-16T11:49:55.886Z,10.40
2019-03-16T11:52:27.095Z,10.40
2019-03-16T11:54:58.292Z,10.50
2019-03-16T11:57:30.024Z,10.50
2019-03-16T12:00:01.386Z,10.50
2019-03-16T12:02:32.727Z,10.60
2019-03-16T12:05:04.219Z,10.60
2019-03-16T12:07:35.799Z,10.70
2019-03-16T12:10:08.660Z,10.80
2019-03-16T12:12:40.322Z,10.80
2019-03-16T12:15:11.924Z,10.90
2019-03-16T12:17:43.269Z,10.90
2019-03-16T12:20:17.890Z,10.90
2019-03-16T12:22:47.994Z,10.90
2019-03-16T12:25:19.618Z,11.00
2019-03-16T12:27:52.577Z,10.90
2019-03-16T12:30:23.886Z,11.00
2019-03-16T12:32:55.229Z,11.10
2019-03-16T12:35:26.695Z,11.20
2019-03-16T12:37:57.883Z,11.20
2019-03-16T12:40:29.325Z,11.30
2019-03-16T12:43:00.909Z,11.40
2019-03-16T12:45:32.183Z,11.60
2019-03-16T12:48:03.470Z,11.60
2019-03-16T12:50:35.171Z,11.60
2019-03-16T12:53:06.481Z,11.60
2019-03-16T12:55:37.731Z,11.50
2019-03-16T12:58:08.962Z,11.50
2019-03-16T13:00:40.222Z,11.70
2019-03-16T13:03:11.410Z,11.90
2019-03-16T13:05:42.720Z,12.10
2019-03-16T13:08:15.049Z,12.20
2019-03-16T13:10:46.421Z,12.40
2019-03-16T13:13:17.709Z,12.40
2019-03-16T13:15:50.529Z,12.50
2019-03-16T13:18:21.715Z,12.50
2019-03-16T13:20:53.223Z,12.50
2019-03-16T13:23:24.431Z,12.60
2019-03-16T13:25:56.122Z,12.90
2019-03-16T13:28:28.875Z,13.10
2019-03-16T13:31:00.140Z,13.20
2019-03-16T13:33:32.906Z,13.50
2019-03-16T13:36:04.238Z,13.30
2019-03-16T13:38:35.447Z,12.80
2019-03-16T13:41:07.126Z,12.60
2019-03-16T13:43:38.342Z,12.50
2019-03-16T13:46:09.741Z,12.40
2019-03-16T13:48:41.030Z,12.30
2019-03-16T13:51:12.282Z,12.30
2019-03-16T13:53:43.850Z,12.30
2019-03-16T13:56:15.189Z,12.30
2019-03-16T13:58:49.670Z,12.30
2019-03-16T14:01:27.390Z,12.40
2019-03-16T14:04:03.569Z,12.50
2019-03-16T14:06:35.509Z,12.50
2019-03-16T14:09:09.218Z,12.60
2019-03-16T14:11:41.593Z,12.50
2019-03-16T14:14:13.113Z,12.50
2019-03-16T14:16:44.371Z,12.50
2019-03-16T14:19:15.674Z,12.50
2019-03-16T14:21:47.293Z,12.40
2019-03-16T14:24:19.242Z,12.50
2019-03-16T14:26:50.562Z,12.50
2019-03-16T14:29:22.149Z,12.50
2019-03-16T14:31:53.384Z,12.50
2019-03-16T14:34:24.726Z,12.70
2019-03-16T14:36:57.367Z,12.80
2019-03-16T14:39:28.995Z,12.90
2019-03-16T14:42:00.560Z,12.90
2019-03-16T14:44:31.786Z,12.90
2019-03-16T14:47:03.042Z,12.90
2019-03-16T14:49:35.296Z,13.00
2019-03-16T14:52:06.956Z,13.00
2019-03-16T14:54:38.234Z,12.90
2019-03-16T14:57:09.455Z,12.90
2019-03-16T14:59:40.910Z,12.80
2019-03-16T15:02:12.190Z,12.90
2019-03-16T15:04:43.388Z,13.00
2019-03-16T15:07:14.983Z,13.00
2019-03-16T15:09:46.369Z,13.20
2019-03-16T15:12:17.926Z,13.50
2019-03-16T15:14:49.157Z,13.40
2019-03-16T15:17:20.753Z,13.20
2019-03-16T15:19:52.281Z,13.10
2019-03-16T15:22:23.600Z,13.20
2019-03-16T15:24:54.820Z,13.20
2019-03-16T15:27:26.036Z,13.30
2019-03-16T15:29:57.241Z,13.30
2019-03-16T15:32:28.469Z,13.30
2019-03-16T15:34:59.724Z,13.30
2019-03-16T15:37:31.050Z,13.40
2019-03-16T15:40:02.795Z,13.70
2019-03-16T15:42:34.464Z,13.80
2019-03-16T15:45:08.163Z,13.70
2019-03-16T15:47:39.376Z,13.60
2019-03-16T15:50:11.081Z,13.70
2019-03-16T15:52:43.387Z,13.60
2019-03-16T15:55:14.835Z,13.40
2019-03-16T15:57:46.860Z,13.20
2019-03-16T16:00:37.454Z,13.20
2019-03-16T16:03:09.519Z,13.10
2019-03-16T16:05:40.814Z,13.00
2019-03-16T16:08:12.161Z,13.00
2019-03-16T16:10:43.439Z,12.90
2019-03-16T16:13:14.770Z,12.90
2019-03-16T16:15:46.337Z,12.90
2019-03-16T16:18:17.584Z,12.90
2019-03-16T16:20:48.866Z,13.00
2019-03-16T16:23:20.046Z,13.10
2019-03-16T16:25:51.256Z,13.00
2019-03-16T16:28:23.677Z,13.00
2019-03-16T16:30:54.968Z,12.80
2019-03-16T16:33:26.381Z,12.70
2019-03-16T16:35:57.634Z,12.60
2019-03-16T16:38:29.154Z,12.60
2019-03-16T16:41:00.348Z,12.60
2019-03-16T16:43:31.699Z,12.50
2019-03-16T16:46:03.477Z,12.40
2019-03-16T16:48:34.704Z,12.40
2019-03-16T16:51:06.582Z,12.40
2019-03-16T16:53:37.826Z,12.30
2019-03-16T16:56:09.447Z,12.10
2019-03-16T16:58:41.029Z,12.00
2019-03-16T17:01:12.985Z,11.90
2019-03-16T17:03:44.209Z,11.90
2019-03-16T17:06:15.505Z,11.80
2019-03-16T17:08:46.759Z,11.60
2019-03-16T17:11:18.406Z,11.40
2019-03-16T17:13:49.684Z,11.20
2019-03-16T17:16:21.362Z,11.00
2019-03-16T17:18:52.614Z,10.80
2019-03-16T17:21:23.938Z,10.50
2019-03-16T17:23:55.237Z,10.20
2019-03-16T17:26:26.790Z,9.80
2019-03-16T17:28:58.034Z,9.50
2019-03-16T17:31:41.465Z,9.30
2019-03-16T17:34:02.463Z,9.00
2019-03-16T17:36:33.807Z,8.80
2019-03-16T17:39:07.386Z,8.50
2019-03-16T17:41:38.643Z,8.40
2019-03-16T17:44:09.973Z,8.30
2019-03-16T17:46:41.319Z,8.20
2019-03-16T17:49:12.533Z,8.00
2019-03-16T17:51:43.963Z,7.60
2019-03-16T17:54:15.204Z,7.30
2019-03-16T17:56:47.488Z,7.10
2019-03-16T17:59:18.702Z,7.00
2019-03-16T18:01:54.553Z,6.80
2019-03-16T18:04:23.008Z,6.80
2019-03-16T18:06:54.534Z,6.70
2019-03-16T18:09:25.719Z,6.60
2019-03-16T18:11:57.211Z,6.60
2019-03-16T18:14:28.591Z,6.50
2019-03-16T18:16:59.901Z,6.70
2019-03-16T18:19:31.146Z,6.60
2019-03-16T18:22:02.802Z,6.50
2019-03-16T18:24:34.327Z,6.40
2019-03-16T18:27:06.464Z,6.30
2019-03-16T18:29:37.699Z,6.30
2019-03-16T18:32:09.342Z,6.30
2019-03-16T18:34:40.920Z,6.40
2019-03-16T18:37:12.162Z,6.50
2019-03-16T18:39:43.625Z,6.60
2019-03-16T18:42:14.787Z,6.60
2019-03-16T18:44:46.047Z,6.60
2019-03-16T18:47:17.210Z,6.60
2019-03-16T18:49:49.097Z,6.50
2019-03-16T18:52:20.347Z,6.30
2019-03-16T18:54:51.637Z,6.20
2019-03-16T18:57:23.155Z,6.10
2019-03-16T18:59:54.340Z,5.90
2019-03-16T19:02:25.605Z,5.80
2019-03-16T19:04:57.040Z,5.60
2019-03-16T19:07:28.352Z,5.50
2019-03-16T19:09:59.551Z,5.40
2019-03-16T19:12:30.871Z,5.30
2019-03-16T19:15:02.056Z,5.30
2019-03-16T19:17:33.522Z,5.30
2019-03-16T19:20:05.219Z,5.50
2019-03-16T19:22:37.788Z,5.70
2019-03-16T19:25:11.538Z,6.00
2019-03-16T19:27:43.286Z,5.80
2019-03-16T19:30:15.694Z,5.70
2019-03-16T19:32:47.054Z,5.50
2019-03-16T19:35:18.297Z,5.50
2019-03-16T19:37:49.954Z,5.40
2019-03-16T19:40:21.206Z,5.20
2019-03-16T19:42:52.655Z,5.00
2019-03-16T19:45:23.843Z,4.90
2019-03-16T19:47:55.010Z,4.80
2019-03-16T19:50:26.334Z,4.90
2019-03-16T19:52:57.732Z,4.90
2019-03-16T19:55:29.085Z,4.70
2019-03-16T19:58:00.354Z,4.60
2019-03-16T20:00:31.803Z,4.50
2019-03-16T20:03:03.030Z,4.40
2019-03-16T20:05:34.671Z,4.40
2019-03-16T20:08:05.978Z,4.50
2019-03-16T20:10:37.395Z,4.50
2019-03-16T20:13:08.541Z,4.40
2019-03-16T20:15:39.788Z,4.30
2019-03-16T20:18:11.300Z,4.30
2019-03-16T20:20:42.619Z,4.30
2019-03-16T20:23:13.876Z,4.20
2019-03-16T20:25:45.058Z,4.10
2019-03-16T20:28:16.304Z,4.10
2019-03-16T20:30:47.619Z,4.00
2019-03-16T20:33:19.124Z,3.90
2019-03-16T20:35:50.440Z,3.90
2019-03-16T20:38:22.076Z,3.90
2019-03-16T20:40:54.003Z,3.80
2019-03-16T20:43:25.411Z,3.90
2019-03-16T20:45:57.946Z,3.80
2019-03-16T20:48:29.307Z,3.80
2019-03-16T20:51:00.477Z,3.70
2019-03-16T20:53:31.652Z,3.70
2019-03-16T20:56:02.895Z,3.70
2019-03-16T20:58:34.417Z,3.70
2019-03-16T21:01:05.932Z,3.80
2019-03-16T21:03:37.210Z,4.10
2019-03-16T21:06:08.574Z,4.10
2019-03-16T21:08:39.723Z,3.90
2019-03-16T21:11:11.426Z,3.80
2019-03-16T21:13:42.910Z,3.60
2019-03-16T21:16:14.449Z,3.40
2019-03-16T21:18:45.708Z,3.30
2019-03-16T21:21:17.067Z,3.30
2019-03-16T21:23:48.300Z,3.40
2019-03-16T21:26:21.058Z,3.60
2019-03-16T21:28:52.302Z,3.60
2019-03-16T21:31:24.331Z,3.70
2019-03-16T21:33:55.777Z,3.80
2019-03-16T21:36:27.113Z,3.90
2019-03-16T21:38:58.396Z,3.90
2019-03-16T21:41:29.617Z,3.90
2019-03-16T21:44:00.797Z,3.90
2019-03-16T21:46:32.396Z,3.90
2019-03-16T21:49:03.869Z,4.00
2019-03-16T21:51:35.079Z,4.10
2019-03-16T21:54:06.669Z,4.10
2019-03-16T21:56:37.984Z,4.00
2019-03-16T21:59:09.354Z,3.90
2019-03-16T22:01:40.947Z,3.90
2019-03-16T22:04:12.187Z,3.80
2019-03-16T22:06:43.529Z,3.60
2019-03-16T22:09:14.744Z,3.50
2019-03-16T22:11:46.000Z,3.50
2019-03-16T22:14:17.290Z,3.50
2019-03-16T22:16:48.893Z,3.50
2019-03-16T22:19:20.239Z,3.40
2019-03-16T22:21:51.506Z,3.40
2019-03-16T22:24:22.667Z,3.30
2019-03-16T22:26:54.004Z,3.30
2019-03-16T22:29:25.311Z,3.30
2019-03-16T22:31:56.799Z,3.30
2019-03-16T22:34:27.956Z,3.10
2019-03-16T22:36:59.125Z,3.10
2019-03-16T22:39:30.286Z,3.00
2019-03-16T22:42:01.633Z,2.90
2019-03-16T22:44:33.356Z,2.80
2019-03-16T22:47:04.604Z,2.80
2019-03-16T22:49:35.765Z,2.90
2019-03-16T22:52:07.368Z,2.90
2019-03-16T22:54:38.543Z,2.80
2019-03-16T22:57:10.171Z,2.80
2019-03-16T22:59:41.877Z,2.70
2019-03-16T23:02:13.228Z,2.60
2019-03-16T23:04:44.536Z,2.60
2019-03-16T23:07:15.828Z,2.50
2019-03-16T23:09:47.127Z,2.50
2019-03-16T23:12:18.368Z,2.60
2019-03-16T23:14:49.639Z,2.60
2019-03-16T23:17:20.937Z,2.60
2019-03-16T23:19:52.106Z,2.50
2019-03-16T23:22:23.619Z,2.40
2019-03-16T23:24:55.115Z,2.30
2019-03-16T23:27:26.694Z,2.40
2019-03-16T23:29:57.915Z,2.40
2019-03-16T23:32:29.171Z,2.50
2019-03-16T23:35:00.866Z,2.60
2019-03-16T23:37:32.208Z,2.60
2019-03-16T23:40:03.512Z,2.50
2019-03-16T23:42:34.932Z,2.50
2019-03-16T23:45:07.112Z,2.50
2019-03-16T23:47:38.406Z,2.60
2019-03-16T23:50:09.810Z,2.60
2019-03-16T23:52:41.153Z,2.70
2019-03-16T23:55:12.523Z,2.70
2019-03-16T23:57:44.248Z,2.70
